Aviation Digital Data Service (ADDS)

Output produced by METARs form (2225 UTC 23 March 2019)
found at http://www.aviationweather.gov/metar/data/
 
METAR text: MMCU 232147Z 08009KT 10SM SKC 26/M05 A3005 RMK AC VC
Conditions at: MMCU (CHIHUAHUA INTL A, MX) observed 2147 UTC 23 March 2019
Temperature: 26.0°C (79°F)
Dewpoint: -5.0°C (23°F) [RH = 13%]
Pressure (altimeter): 30.05 inches Hg (1017.7 mb)
Winds: from the E (80 degrees) at 10 MPH (9 knots; 4.6 m/s)
Visibility: 10 or more miles (16+ km)
Ceiling: at least 12,000 feet AGL
Clouds: clear skies
Weather: no significant weather observed at this time

METAR text: MMCU 232040Z 08007KT 10SM BKN200 25/M06 A3008 RMK SLP117 57023 927 8/008
Conditions at: MMCU (CHIHUAHUA INTL A, MX) observed 2040 UTC 23 March 2019
Temperature: 25.0°C (77°F)
Dewpoint: -6.0°C (21°F) [RH = 12%]
Pressure (altimeter): 30.08 inches Hg (1018.7 mb)
[Sea-level pressure: 1011.7 mb]
Winds: from the E (80 degrees) at 8 MPH (7 knots; 3.6 m/s)
Visibility: 10 or more miles (16+ km)
Ceiling: 20000 feet AGL
Clouds: broken clouds at 20000 feet AGL
Weather: no significant weather observed at this time

METAR text: MMCU 231940Z 09007KT 10SM BKN200 24/M05 A3010 RMK 8/001
Conditions at: MMCU (CHIHUAHUA INTL A, MX) observed 1940 UTC 23 March 2019
Temperature: 24.0°C (75°F)
Dewpoint: -5.0°C (23°F) [RH = 14%]
Pressure (altimeter): 30.10 inches Hg (1019.4 mb)
Winds: from the E (90 degrees) at 8 MPH (7 knots; 3.6 m/s)
Visibility: 10 or more miles (16+ km)
Ceiling: 20000 feet AGL
Clouds: broken clouds at 20000 feet AGL
Weather: no significant weather observed at this time

METAR text: MMCU 231840Z 09007KT 10SM SCT200 22/M06 A3013 RMK 8/008
Conditions at: MMCU (CHIHUAHUA INTL A, MX) observed 1840 UTC 23 March 2019
Temperature: 22.0°C (72°F)
Dewpoint: -6.0°C (21°F) [RH = 15%]
Pressure (altimeter): 30.13 inches Hg (1020.4 mb)
Winds: from the E (90 degrees) at 8 MPH (7 knots; 3.6 m/s)
Visibility: 10 or more miles (16+ km)
Ceiling: at least 12,000 feet AGL
Clouds: scattered clouds at 20000 feet AGL
Weather: no significant weather observed at this time

METAR text: MMCU 231743Z 00000KT 10SM SKC 21/M07 A3017 RMK SLP139 50707
Conditions at: MMCU (CHIHUAHUA INTL A, MX) observed 1743 UTC 23 March 2019
Temperature: 21.0°C (70°F)
Dewpoint: -7.0°C (19°F) [RH = 15%]
Pressure (altimeter): 30.17 inches Hg (1021.8 mb)
[Sea-level pressure: 1013.9 mb]
Winds: calm
Visibility: 10 or more miles (16+ km)
Ceiling: at least 12,000 feet AGL
Clouds: clear skies
Weather: no significant weather observed at this time

METAR text: MMCU 231642Z 06004KT 10SM SKC 18/M07 A3019
Conditions at: MMCU (CHIHUAHUA INTL A, MX) observed 1642 UTC 23 March 2019
Temperature: 18.0°C (64°F)
Dewpoint: -7.0°C (19°F) [RH = 18%]
Pressure (altimeter): 30.19 inches Hg (1022.4 mb)
Winds: from the ENE (60 degrees) at 5 MPH (4 knots; 2.1 m/s)
Visibility: 10 or more miles (16+ km)
Ceiling: at least 12,000 feet AGL
Clouds: clear skies
Weather: no significant weather observed at this time

METAR text: MMCU 231540Z 00000KT 10SM SKC 16/M08 A3020
Conditions at: MMCU (CHIHUAHUA INTL A, MX) observed 1540 UTC 23 March 2019
Temperature: 16.0°C (61°F)
Dewpoint: -8.0°C (18°F) [RH = 18%]
Pressure (altimeter): 30.20 inches Hg (1022.8 mb)
Winds: calm
Visibility: 10 or more miles (16+ km)
Ceiling: at least 12,000 feet AGL
Clouds: clear skies
Weather: no significant weather observed at this time

METAR text: MMCU 231440Z 00000KT 10SM SKC 11/M08 A3020 RMK SLP160 52004 927
Conditions at: MMCU (CHIHUAHUA INTL A, MX) observed 1440 UTC 23 March 2019
Temperature: 11.0°C (52°F)
Dewpoint: -8.0°C (18°F) [RH = 25%]
Pressure (altimeter): 30.20 inches Hg (1022.8 mb)
[Sea-level pressure: 1016.0 mb]
Winds: calm
Visibility: 10 or more miles (16+ km)
Ceiling: at least 12,000 feet AGL
Clouds: clear skies
Weather: no significant weather observed at this time

METAR text: MMCU 231343Z 00000KT 10SM SKC 06/M11 A3018
Conditions at: MMCU (CHIHUAHUA INTL A, MX) observed 1343 UTC 23 March 2019
Temperature: 6.0°C (43°F)
Dewpoint: -11.0°C (12°F) [RH = 28%]
Pressure (altimeter): 30.18 inches Hg (1022.1 mb)
Winds: calm
Visibility: 10 or more miles (16+ km)
Ceiling: at least 12,000 feet AGL
Clouds: clear skies
Weather: no significant weather observed at this time

METAR text: MMCU 231040Z 16008KT 10SM SCT200 03/M13 A3011 RMK 8/008 RTS
Conditions at: MMCU (CHIHUAHUA INTL A, MX) observed 1040 UTC 23 March 2019
Temperature: 3.0°C (37°F)
Dewpoint: -13.0°C ( 9°F) [RH = 30%]
Pressure (altimeter): 30.11 inches Hg (1019.7 mb)
Winds: from the SSE (160 degrees) at 9 MPH (8 knots; 4.1 m/s)
Visibility: 10 or more miles (16+ km)
Ceiling: at least 12,000 feet AGL
Clouds: scattered clouds at 20000 feet AGL
Weather: no significant weather observed at this time

METAR text: MMCU 230350Z 28005KT 10SM BKN080 17/M09 A3007 RMK 8/070
Conditions at: MMCU (CHIHUAHUA INTL A, MX) observed 0350 UTC 23 March 2019
Temperature: 17.0°C (63°F)
Dewpoint: -9.0°C (16°F) [RH = 16%]
Pressure (altimeter): 30.07 inches Hg (1018.4 mb)
Winds: from the W (280 degrees) at 6 MPH (5 knots; 2.6 m/s)
Visibility: 10 or more miles (16+ km)
Ceiling: 8000 feet AGL
Clouds: broken clouds at 8000 feet AGL
Weather: no significant weather observed at this time

METAR text: MMCU 230247Z 21007KT 10SM BKN080 19/M07 A3002 RMK SLP103 52020 917 8/070
Conditions at: MMCU (CHIHUAHUA INTL A, MX) observed 0247 UTC 23 March 2019
Temperature: 19.0°C (66°F)
Dewpoint: -7.0°C (19°F) [RH = 16%]
Pressure (altimeter): 30.02 inches Hg (1016.7 mb)
[Sea-level pressure: 1010.3 mb]
Winds: from the SSW (210 degrees) at 8 MPH (7 knots; 3.6 m/s)
Visibility: 10 or more miles (16+ km)
Ceiling: 8000 feet AGL
Clouds: broken clouds at 8000 feet AGL
Weather: no significant weather observed at this time

METAR text: MMCU 230146Z 27007KT 10SM BKN080 22/M10 A3000 RMK 8/070
Conditions at: MMCU (CHIHUAHUA INTL A, MX) observed 0146 UTC 23 March 2019
Temperature: 22.0°C (72°F)
Dewpoint: -10.0°C (14°F) [RH = 11%]
Pressure (altimeter): 30.00 inches Hg (1016.0 mb)
Winds: from the W (270 degrees) at 8 MPH (7 knots; 3.6 m/s)
Visibility: 10 or more miles (16+ km)
Ceiling: 8000 feet AGL
Clouds: broken clouds at 8000 feet AGL
Weather: no significant weather observed at this time

METAR text: MMCU 230052Z 25009KT 10SM BKN080 23/M11 A2998 RMK 8/07/
Conditions at: MMCU (CHIHUAHUA INTL A, MX) observed 0052 UTC 23 March 2019
Temperature: 23.0°C (73°F)
Dewpoint: -11.0°C (12°F) [RH =  9%]
Pressure (altimeter): 29.98 inches Hg (1015.3 mb)
Winds: from the WSW (250 degrees) at 10 MPH (9 knots; 4.6 m/s)
Visibility: 10 or more miles (16+ km)
Ceiling: 8000 feet AGL
Clouds: broken clouds at 8000 feet AGL
Weather: no significant weather observed at this time

METAR text: MMCU 222349Z 25014KT 10SM OVC090 24/M10 A2996 RMK SLP076 54000 904 8/07/
Conditions at: MMCU (CHIHUAHUA INTL A, MX) observed 2349 UTC 22 March 2019
Temperature: 24.0°C (75°F)
Dewpoint: -10.0°C (14°F) [RH = 10%]
Pressure (altimeter): 29.96 inches Hg (1014.6 mb)
[Sea-level pressure: 1007.6 mb]
Winds: from the WSW (250 degrees) at 16 MPH (14 knots; 7.2 m/s)
Visibility: 10 or more miles (16+ km)
Ceiling: 9000 feet AGL
Clouds: overcast cloud deck at 9000 feet AGL
Weather: no significant weather observed at this time

METAR text: MMCU 222244Z 27015KT 10SM OVC090 26/M09 A2995 RMK 8/07/ BINOVC
Conditions at: MMCU (CHIHUAHUA INTL A, MX) observed 2244 UTC 22 March 2019
Temperature: 26.0°C (79°F)
Dewpoint: -9.0°C (16°F) [RH =  9%]
Pressure (altimeter): 29.95 inches Hg (1014.3 mb)
Winds: from the W (270 degrees) at 17 MPH (15 knots; 7.7 m/s)
Visibility: 10 or more miles (16+ km)
Ceiling: 9000 feet AGL
Clouds: overcast cloud deck at 9000 feet AGL
Weather: no significant weather observed at this time

METAR text: MMCU 222145Z 25013KT 10SM SCT090 BKN200 28/M07 A2996 RMK 8/078
Conditions at: MMCU (CHIHUAHUA INTL A, MX) observed 2145 UTC 22 March 2019
Temperature: 28.0°C (82°F)
Dewpoint: -7.0°C (19°F) [RH = 10%]
Pressure (altimeter): 29.96 inches Hg (1014.6 mb)
Winds: from the WSW (250 degrees) at 15 MPH (13 knots; 6.7 m/s)
Visibility: 10 or more miles (16+ km)
Ceiling: 20000 feet AGL
Clouds: scattered clouds at 9000 feet AGL
broken clouds at 20000 feet AGL
Weather: no significant weather observed at this time

METAR text: MMCU 222040Z 25007G18KT 10SM SCT090 BKN200 27/M10 A2998 RMK SLP063 57030 9// 8/078
Conditions at: MMCU (CHIHUAHUA INTL A, MX) observed 2040 UTC 22 March 2019
Temperature: 27.0°C (81°F)
Dewpoint: -10.0°C (14°F) [RH =  8%]
Pressure (altimeter): 29.98 inches Hg (1015.3 mb)
[Sea-level pressure: 1006.3 mb]
Winds: from the WSW (250 degrees) at 8 MPH (7 knots; 3.6 m/s)
gusting to 21 MPH (18 knots; 9.3 m/s)
Visibility: 10 or more miles (16+ km)
Ceiling: 20000 feet AGL
Clouds: scattered clouds at 9000 feet AGL
broken clouds at 20000 feet AGL
Weather: no significant weather observed at this time

METAR text: MMCU 221943Z 22010KT 10SM FEW090 BKN200 26/M06 A3001 RMK 8/078
Conditions at: MMCU (CHIHUAHUA INTL A, MX) observed 1943 UTC 22 March 2019
Temperature: 26.0°C (79°F)
Dewpoint: -6.0°C (21°F) [RH = 12%]
Pressure (altimeter): 30.01 inches Hg (1016.3 mb)
Winds: from the SW (220 degrees) at 12 MPH (10 knots; 5.1 m/s)
Visibility: 10 or more miles (16+ km)
Ceiling: 20000 feet AGL
Clouds: few clouds at 9000 feet AGL
broken clouds at 20000 feet AGL
Weather: no significant weather observed at this time

METAR text: MMCU 221841Z 22010KT 10SM FEW090 BKN200 26/M05 A3005 RMK 8/078
Conditions at: MMCU (CHIHUAHUA INTL A, MX) observed 1841 UTC 22 March 2019
Temperature: 26.0°C (79°F)
Dewpoint: -5.0°C (23°F) [RH = 13%]
Pressure (altimeter): 30.05 inches Hg (1017.7 mb)
Winds: from the SW (220 degrees) at 12 MPH (10 knots; 5.1 m/s)
Visibility: 10 or more miles (16+ km)
Ceiling: 20000 feet AGL
Clouds: few clouds at 9000 feet AGL
broken clouds at 20000 feet AGL
Weather: no significant weather observed at this time

METAR text: MMCU 221741Z 21012KT 10SM BKN200 24/M03 A3008 RMK SLP092 54000 9// 8/008
Conditions at: MMCU (CHIHUAHUA INTL A, MX) observed 1741 UTC 22 March 2019
Temperature: 24.0°C (75°F)
Dewpoint: -3.0°C (27°F) [RH = 16%]
Pressure (altimeter): 30.08 inches Hg (1018.7 mb)
[Sea-level pressure: 1009.2 mb]
Winds: from the SSW (210 degrees) at 14 MPH (12 knots; 6.2 m/s)
Visibility: 10 or more miles (16+ km)
Ceiling: 20000 feet AGL
Clouds: broken clouds at 20000 feet AGL
Weather: no significant weather observed at this time

METAR text: MMCU 221640Z 19012KT 10SM BKN200 22/M02 A3010 RMK 8/008
Conditions at: MMCU (CHIHUAHUA INTL A, MX) observed 1640 UTC 22 March 2019
Temperature: 22.0°C (72°F)
Dewpoint: -2.0°C (28°F) [RH = 20%]
Pressure (altimeter): 30.10 inches Hg (1019.4 mb)
Winds: from the S (190 degrees) at 14 MPH (12 knots; 6.2 m/s)
Visibility: 10 or more miles (16+ km)
Ceiling: 20000 feet AGL
Clouds: broken clouds at 20000 feet AGL
Weather: no significant weather observed at this time

METAR text: MMCU 221608Z RTD 22012KT 10SM FEW090 BKN200 20/M02 A3010 RMK 8/072 HZY
Conditions at: MMCU (CHIHUAHUA INTL A, MX) observed 1608 UTC 22 March 2019
Temperature: 20.0°C (68°F)
Dewpoint: -2.0°C (28°F) [RH = 23%]
Pressure (altimeter): 30.10 inches Hg (1019.4 mb)
Winds: from the SW (220 degrees) at 14 MPH (12 knots; 6.2 m/s)
Visibility: 10 or more miles (16+ km)
Ceiling: 20000 feet AGL
Clouds: few clouds at 9000 feet AGL
broken clouds at 20000 feet AGL
Weather: no significant weather observed at this time

METAR text: MMCU 221443Z 24008KT 10SM FEW090 BKN200 17/M01 A3009 RMK SLP106 52013 9// 8/072 HZY+
Conditions at: MMCU (CHIHUAHUA INTL A, MX) observed 1443 UTC 22 March 2019
Temperature: 17.0°C (63°F)
Dewpoint: -1.0°C (30°F) [RH = 29%]
Pressure (altimeter): 30.09 inches Hg (1019.0 mb)
[Sea-level pressure: 1010.6 mb]
Winds: from the WSW (240 degrees) at 9 MPH (8 knots; 4.1 m/s)
Visibility: 10 or more miles (16+ km)
Ceiling: 20000 feet AGL
Clouds: few clouds at 9000 feet AGL
broken clouds at 20000 feet AGL
Weather: no significant weather observed at this time

METAR text: MMCU 221349Z 23010KT 10SM BKN200 13/M02 A3008 RMK 8/002
Conditions at: MMCU (CHIHUAHUA INTL A, MX) observed 1349 UTC 22 March 2019
Temperature: 13.0°C (55°F)
Dewpoint: -2.0°C (28°F) [RH = 35%]
Pressure (altimeter): 30.08 inches Hg (1018.7 mb)
Winds: from the SW (230 degrees) at 12 MPH (10 knots; 5.1 m/s)
Visibility: 10 or more miles (16+ km)
Ceiling: 20000 feet AGL
Clouds: broken clouds at 20000 feet AGL
Weather: no significant weather observed at this time

METAR text: MMCU 221040Z 20005KT 10SM BKN200 10/M05 A3005 RMK 8/002 RTS
Conditions at: MMCU (CHIHUAHUA INTL A, MX) observed 1040 UTC 22 March 2019
Temperature: 10.0°C (50°F)
Dewpoint: -5.0°C (23°F) [RH = 34%]
Pressure (altimeter): 30.05 inches Hg (1017.7 mb)
Winds: from the SSW (200 degrees) at 6 MPH (5 knots; 2.6 m/s)
Visibility: 10 or more miles (16+ km)
Ceiling: 20000 feet AGL
Clouds: broken clouds at 20000 feet AGL
Weather: no significant weather observed at this time

Forecast for: MMCU (CHIHUAHUA INTL A, MX)
Text: TAF MMCU 231700Z 2318/2418 22010KT P6SM SKC
Forecast period: 1800 UTC 23 March 2019 to 0400 UTC 24 March 2019
Forecast type: FROM: standard forecast or significant change
Winds: from the SW (220 degrees) at 12 MPH (10 knots; 5.1 m/s)
Visibility: 6 or more miles 10+ km)
Clouds: clear skies
Weather: no significant weather forecast for this period
Text: FM240400 31006KT P6SM SKC
Forecast period: 0400 to 1600 UTC 24 March 2019
Forecast type: FROM: standard forecast or significant change
Winds: from the NW (310 degrees) at 7 MPH (6 knots; 3.1 m/s)
Visibility: 6 or more miles 10+ km)
Clouds: clear skies
Weather: no significant weather forecast for this period
Text: FM241600 00000KT P6SM SKC
Forecast period: 1600 to 1800 UTC 24 March 2019
Forecast type: FROM: standard forecast or significant change
Winds: calm
Visibility: 6 or more miles 10+ km)
Clouds: clear skies
Weather: no significant weather forecast for this period